createdAt,value
2023-04-18T00:00:52.720Z,22.43
2023-04-18T00:01:52.859Z,22.30
2023-04-18T00:02:52.954Z,22.36
2023-04-18T00:03:53.144Z,22.26
2023-04-18T00:04:52.948Z,22.03
2023-04-18T00:05:52.919Z,22.04
2023-04-18T00:06:52.949Z,21.96
2023-04-18T00:07:53.026Z,21.96
2023-04-18T00:08:53.047Z,21.99
2023-04-18T00:09:53.017Z,21.98
2023-04-18T00:10:53.026Z,22.05
2023-04-18T00:11:53.047Z,21.99
2023-04-18T00:12:53.084Z,22.14
2023-04-18T00:13:53.031Z,22.19
2023-04-18T00:14:53.040Z,21.81
2023-04-18T00:15:53.036Z,21.99
2023-04-18T00:16:53.083Z,21.70
2023-04-18T00:17:53.132Z,21.71
2023-04-18T00:18:53.046Z,21.47
2023-04-18T00:19:53.044Z,21.43
2023-04-18T00:20:53.045Z,21.24
2023-04-18T00:21:53.051Z,21.22
2023-04-18T00:22:53.046Z,21.09
2023-04-18T00:23:53.049Z,21.13
2023-04-18T00:24:53.093Z,21.13
2023-04-18T00:25:53.131Z,21.04
2023-04-18T00:26:53.203Z,20.71
2023-04-18T00:27:53.224Z,20.88
2023-04-18T00:28:53.260Z,20.84
2023-04-18T00:29:53.307Z,20.69
2023-04-18T00:30:53.363Z,20.55
2023-04-18T00:31:53.379Z,20.64
2023-04-18T00:32:53.452Z,20.50
2023-04-18T00:33:53.484Z,20.46
2023-04-18T00:34:53.509Z,20.61
2023-04-18T00:35:53.547Z,20.30
2023-04-18T00:36:53.599Z,20.09
2023-04-18T00:37:53.634Z,20.38
2023-04-18T00:38:53.690Z,20.05
2023-04-18T00:39:53.726Z,20.07
2023-04-18T00:40:53.806Z,19.91
2023-04-18T00:41:53.818Z,20.03
2023-04-18T00:42:53.850Z,19.83
2023-04-18T00:43:54.100Z,19.81
2023-04-18T00:44:53.986Z,19.56
2023-04-18T00:45:54.067Z,19.64
2023-04-18T00:46:54.049Z,19.63
2023-04-18T00:47:54.124Z,19.25
2023-04-18T00:48:54.148Z,19.35
2023-04-18T00:49:54.189Z,19.27
2023-04-18T00:50:54.220Z,19.25
2023-04-18T00:51:54.400Z,19.28
2023-04-18T00:52:54.341Z,19.26
2023-04-18T00:53:54.364Z,19.16
2023-04-18T00:54:54.405Z,19.31
2023-04-18T00:55:54.452Z,18.97
2023-04-18T00:56:54.567Z,19.15
2023-04-18T00:57:54.555Z,18.91
2023-04-18T00:58:54.609Z,18.85
2023-04-18T00:59:54.632Z,18.90
2023-04-18T01:00:54.722Z,18.86
2023-04-18T01:01:54.966Z,18.75
2023-04-18T01:02:54.852Z,18.92
2023-04-18T01:03:55.034Z,18.71
2023-04-18T01:04:54.899Z,18.64
2023-04-18T01:05:54.913Z,18.72
2023-04-18T01:06:54.932Z,18.62
2023-04-18T01:07:54.980Z,18.51
2023-04-18T01:08:55.031Z,18.24
2023-04-18T01:09:55.078Z,18.39
2023-04-18T01:10:55.117Z,18.22
2023-04-18T01:11:55.148Z,18.27
2023-04-18T01:12:55.195Z,18.22
2023-04-18T01:13:55.251Z,18.09
2023-04-18T01:14:55.293Z,18.04
2023-04-18T01:15:55.375Z,18.03
2023-04-18T01:16:55.376Z,17.96
2023-04-18T01:17:55.468Z,18.07
2023-04-18T01:18:55.475Z,17.89
2023-04-18T01:19:55.537Z,17.78
2023-04-18T01:20:55.573Z,17.82
2023-04-18T01:21:55.588Z,17.84
2023-04-18T01:22:55.585Z,17.88
2023-04-18T01:23:55.647Z,17.88
2023-04-18T01:24:55.584Z,17.85
2023-04-18T01:25:55.610Z,17.82
2023-04-18T01:26:55.621Z,17.68
2023-04-18T01:27:55.617Z,17.41
2023-04-18T01:28:55.613Z,17.56
2023-04-18T01:29:55.626Z,17.45
2023-04-18T01:30:55.643Z,17.42
2023-04-18T01:31:55.622Z,17.47
2023-04-18T01:32:55.673Z,17.19
2023-04-18T01:33:55.630Z,17.33
2023-04-18T01:34:55.644Z,17.27
2023-04-18T01:35:55.652Z,17.18
2023-04-18T01:36:55.681Z,17.07
2023-04-18T01:37:55.731Z,17.06
2023-04-18T01:38:55.791Z,16.99
2023-04-18T01:39:55.825Z,17.02
2023-04-18T01:40:55.884Z,17.04
2023-04-18T01:41:55.929Z,16.71
2023-04-18T01:42:55.980Z,16.80
2023-04-18T01:43:56.018Z,16.70
2023-04-18T01:44:56.053Z,16.83
2023-04-18T01:45:56.128Z,16.63
2023-04-18T01:46:56.261Z,16.69
2023-04-18T01:47:56.292Z,16.54
2023-04-18T01:48:56.263Z,16.70
2023-04-18T01:49:56.303Z,16.48
2023-04-18T01:50:56.356Z,16.54
2023-04-18T01:51:56.400Z,16.35
2023-04-18T01:52:56.443Z,16.31
2023-04-18T01:53:56.488Z,16.37
2023-04-18T01:54:56.532Z,16.29
2023-04-18T01:55:56.586Z,16.22
2023-04-18T01:56:56.618Z,16.19
2023-04-18T01:57:56.669Z,16.16
2023-04-18T01:58:56.700Z,16.03
2023-04-18T01:59:56.779Z,16.06
2023-04-18T02:00:56.829Z,16.07
2023-04-18T02:01:56.893Z,16.10
2023-04-18T02:02:56.929Z,16.12
2023-04-18T02:03:56.913Z,16.12
2023-04-18T02:04:56.802Z,16.21
2023-04-18T02:05:56.815Z,16.10
2023-04-18T02:06:56.829Z,16.14
2023-04-18T02:07:56.805Z,16.15
2023-04-18T02:08:56.823Z,16.05
2023-04-18T02:09:56.814Z,16.09
2023-04-18T02:10:56.838Z,15.86
2023-04-18T02:11:56.826Z,15.88
2023-04-18T02:12:56.820Z,15.95
2023-04-18T02:13:56.822Z,15.95
2023-04-18T02:14:56.824Z,15.93
2023-04-18T02:15:56.930Z,15.60
2023-04-18T02:16:56.889Z,15.65
2023-04-18T02:17:56.891Z,15.59
2023-04-18T02:18:56.838Z,15.45
2023-04-18T02:19:56.872Z,15.62
2023-04-18T02:20:56.918Z,15.63
2023-04-18T02:21:56.969Z,15.50
2023-04-18T02:22:57.010Z,15.56
2023-04-18T02:23:57.072Z,15.24
2023-04-18T02:24:57.114Z,15.27
2023-04-18T02:25:57.151Z,15.27
2023-04-18T02:26:57.193Z,15.28
2023-04-18T02:27:57.228Z,15.13
2023-04-18T02:28:57.287Z,15.12
2023-04-18T02:29:57.324Z,15.03
2023-04-18T02:30:57.382Z,15.15
2023-04-18T02:31:57.437Z,15.01
2023-04-18T02:32:57.523Z,14.96
2023-04-18T02:33:57.500Z,14.95
2023-04-18T02:34:57.541Z,14.90
2023-04-18T02:35:57.598Z,14.76
2023-04-18T02:36:57.650Z,14.78
2023-04-18T02:37:57.677Z,14.70
2023-04-18T02:38:57.730Z,14.53
2023-04-18T02:39:57.777Z,14.56
2023-04-18T02:40:57.843Z,14.60
2023-04-18T02:41:57.873Z,14.46
2023-04-18T02:42:57.925Z,14.45
2023-04-18T02:43:57.976Z,14.39
2023-04-18T02:44:58.014Z,14.32
2023-04-18T02:45:58.104Z,14.35
2023-04-18T02:46:58.133Z,14.18
2023-04-18T02:47:58.203Z,14.17
2023-04-18T02:48:58.252Z,14.17
2023-04-18T02:49:58.280Z,14.14
2023-04-18T02:50:58.346Z,13.97
2023-04-18T02:51:58.381Z,14.22
2023-04-18T02:52:58.447Z,14.01
2023-04-18T02:53:58.465Z,14.18
2023-04-18T02:54:58.484Z,14.20
2023-04-18T02:55:58.491Z,14.20
2023-04-18T02:56:58.496Z,14.21
2023-04-18T02:57:58.503Z,14.15
2023-04-18T02:58:58.507Z,14.06
2023-04-18T02:59:58.518Z,13.22
2023-04-18T03:00:58.572Z,11.62
2023-04-18T03:01:58.568Z,10.29
2023-04-18T03:02:58.589Z,9.49
2023-04-18T03:03:58.569Z,8.84
2023-04-18T03:04:58.625Z,8.24
2023-04-18T03:05:58.577Z,7.68
2023-04-18T03:06:58.580Z,6.96
2023-04-18T03:07:58.606Z,6.45
2023-04-18T03:08:58.611Z,5.92
2023-04-18T03:09:58.630Z,5.45
2023-04-18T03:10:58.658Z,5.18
2023-04-18T03:11:58.686Z,4.73
2023-04-18T03:12:58.695Z,4.39
2023-04-18T03:13:58.730Z,4.11
2023-04-18T03:14:58.761Z,3.84
2023-04-18T03:15:59.011Z,3.62
2023-04-18T03:16:58.858Z,3.46
2023-04-18T03:17:58.959Z,3.30
2023-04-18T03:18:58.947Z,3.14
2023-04-18T03:19:58.981Z,3.02
2023-04-18T03:20:59.031Z,2.83
2023-04-18T03:21:59.080Z,2.71
2023-04-18T03:22:59.126Z,2.59
2023-04-18T03:23:59.189Z,2.52
2023-04-18T03:24:59.232Z,2.39
2023-04-18T03:25:59.266Z,2.31
2023-04-18T03:26:59.304Z,2.22
2023-04-18T03:27:59.368Z,2.10
2023-04-18T03:28:59.406Z,2.04
2023-04-18T03:29:59.446Z,1.93
2023-04-18T03:30:59.538Z,1.90
2023-04-18T03:31:59.662Z,1.82
2023-04-18T03:32:59.636Z,1.78
2023-04-18T03:33:59.653Z,1.73
2023-04-18T03:34:59.701Z,1.66
2023-04-18T03:35:59.754Z,1.60
2023-04-18T03:36:59.776Z,1.59
2023-04-18T03:37:59.789Z,1.52
2023-04-18T03:38:59.809Z,1.52
2023-04-18T03:39:59.825Z,1.50
2023-04-18T03:40:59.871Z,1.47
2023-04-18T03:41:59.865Z,1.43
2023-04-18T03:42:59.899Z,1.40
2023-04-18T03:43:59.919Z,1.37
2023-04-18T03:44:59.917Z,1.37
2023-04-18T03:45:59.995Z,1.33
2023-04-18T03:46:59.953Z,1.31
2023-04-18T03:48:00.030Z,1.28
2023-04-18T03:48:59.988Z,1.25
2023-04-18T03:50:00.012Z,1.25
2023-04-18T03:51:00.040Z,1.20
2023-04-18T03:52:00.051Z,1.19
2023-04-18T03:53:00.070Z,1.14
2023-04-18T03:54:00.105Z,1.11
2023-04-18T03:55:00.169Z,1.09
2023-04-18T03:56:00.154Z,1.07
2023-04-18T03:57:00.165Z,1.05
2023-04-18T03:58:00.175Z,1.01
2023-04-18T03:59:00.202Z,0.98
2023-04-18T04:00:00.243Z,0.96
2023-04-18T04:01:00.325Z,0.94
2023-04-18T04:02:00.510Z,0.92
2023-04-18T04:03:00.570Z,0.86
2023-04-18T04:04:00.596Z,0.84
2023-04-18T04:05:00.632Z,0.84
2023-04-18T04:06:00.603Z,0.79
2023-04-18T04:07:00.625Z,0.77
2023-04-18T04:08:00.637Z,0.76
2023-04-18T04:09:00.664Z,0.75
2023-04-18T04:10:00.675Z,0.75
2023-04-18T04:11:00.693Z,0.74
2023-04-18T04:12:00.708Z,0.73
2023-04-18T04:13:00.729Z,0.73
2023-04-18T04:14:00.796Z,0.71
2023-04-18T04:15:00.855Z,0.72
2023-04-18T04:16:00.970Z,0.72
2023-04-18T04:17:00.997Z,0.71
2023-04-18T04:18:01.072Z,0.72
2023-04-18T04:19:01.132Z,0.71
2023-04-18T04:20:01.210Z,0.71
2023-04-18T04:21:01.288Z,0.71
2023-04-18T04:22:01.372Z,0.71
2023-04-18T04:23:01.428Z,0.71
2023-04-18T04:24:01.552Z,0.71
2023-04-18T04:25:01.591Z,0.71
2023-04-18T04:26:01.759Z,0.70
2023-04-18T04:27:01.760Z,0.69
2023-04-18T04:28:01.826Z,0.69
2023-04-18T04:29:01.900Z,0.68
2023-04-18T04:30:01.973Z,0.70
2023-04-18T04:31:02.085Z,0.71
2023-04-18T04:32:02.226Z,0.70
2023-04-18T04:33:02.251Z,0.72
2023-04-18T04:34:02.298Z,0.70
2023-04-18T04:35:02.390Z,0.73
2023-04-18T04:36:02.498Z,0.72
2023-04-18T04:37:02.567Z,0.72
2023-04-18T04:38:02.660Z,0.74
2023-04-18T04:39:02.746Z,0.75
2023-04-18T04:40:02.852Z,0.74
2023-04-18T04:41:02.906Z,0.77
2023-04-18T04:42:02.941Z,0.77
2023-04-18T04:43:02.959Z,0.77
2023-04-18T04:44:02.969Z,0.78
2023-04-18T04:45:03.032Z,0.78
2023-04-18T04:46:03.044Z,0.80
2023-04-18T04:47:03.033Z,0.81
2023-04-18T04:48:03.046Z,0.85
2023-04-18T04:49:03.040Z,0.86
2023-04-18T04:50:03.061Z,0.87
2023-04-18T04:51:03.080Z,0.93
2023-04-18T04:52:03.178Z,0.96
2023-04-18T04:53:03.171Z,0.97
2023-04-18T04:54:03.202Z,0.97
2023-04-18T04:55:03.245Z,1.00
2023-04-18T04:56:03.239Z,1.00
2023-04-18T04:57:03.272Z,1.00
2023-04-18T04:58:03.277Z,1.01
2023-04-18T04:59:03.287Z,1.00
2023-04-18T05:00:03.299Z,1.01
2023-04-18T05:01:03.325Z,0.99
2023-04-18T05:02:03.471Z,0.97
2023-04-18T05:03:03.490Z,0.95
2023-04-18T05:04:03.446Z,0.94
2023-04-18T05:05:03.362Z,0.93
2023-04-18T05:06:03.391Z,0.93
2023-04-18T05:07:03.420Z,0.90
2023-04-18T05:08:03.587Z,0.89
2023-04-18T05:09:03.484Z,0.88
2023-04-18T05:10:03.505Z,0.88
2023-04-18T05:11:03.552Z,0.86
2023-04-18T05:12:03.619Z,0.88
2023-04-18T05:13:03.660Z,0.88
2023-04-18T05:14:03.680Z,0.88
2023-04-18T05:15:03.709Z,0.84
2023-04-18T05:16:03.711Z,0.85
2023-04-18T05:17:03.796Z,0.85
2023-04-18T05:18:03.792Z,0.85
2023-04-18T05:19:03.783Z,0.83
2023-04-18T05:20:03.793Z,0.85
2023-04-18T05:21:03.796Z,0.86
2023-04-18T05:22:03.812Z,0.84
2023-04-18T05:23:03.838Z,0.81
2023-04-18T05:24:03.843Z,0.78
2023-04-18T05:25:03.854Z,0.78
2023-04-18T05:26:03.876Z,0.73
2023-04-18T05:27:03.887Z,0.71
2023-04-18T05:28:03.960Z,0.67
2023-04-18T05:29:03.940Z,0.65
2023-04-18T05:30:03.941Z,0.63
2023-04-18T05:31:04.039Z,0.59
2023-04-18T05:32:03.989Z,0.57
2023-04-18T05:33:04.086Z,0.62
2023-04-18T05:34:03.999Z,0.62
2023-04-18T05:35:04.009Z,0.62
2023-04-18T05:36:04.024Z,0.66
2023-04-18T05:37:04.051Z,0.79
2023-04-18T05:38:04.062Z,1.10
2023-04-18T05:39:04.106Z,1.83
2023-04-18T05:40:04.097Z,2.13
2023-04-18T05:41:04.082Z,2.32
2023-04-18T05:42:04.089Z,2.62
2023-04-18T05:43:04.105Z,2.86
2023-04-18T05:44:17.177Z,3.05
2023-04-18T05:45:05.159Z,3.07
2023-04-18T05:46:04.196Z,3.17
2023-04-18T05:47:04.366Z,3.44
2023-04-18T05:48:04.257Z,4.02
2023-04-18T05:49:04.170Z,5.28
2023-04-18T05:50:04.176Z,5.94
2023-04-18T05:51:04.196Z,6.98
2023-04-18T05:52:04.188Z,6.08
2023-04-18T05:53:04.196Z,1.27
2023-04-18T05:54:04.264Z,0.72
2023-04-18T05:55:04.290Z,0.50
2023-04-18T05:56:04.361Z,0.50
2023-04-18T05:57:04.946Z,0.48
2023-04-18T05:58:04.457Z,0.42
2023-04-18T05:59:04.541Z,0.43
2023-04-18T06:00:04.585Z,0.48
2023-04-18T06:01:04.634Z,0.50
2023-04-18T06:02:04.791Z,0.52
2023-04-18T06:03:04.956Z,0.75
2023-04-18T06:04:04.960Z,1.07
2023-04-18T06:05:05.168Z,1.46
2023-04-18T06:06:05.028Z,1.87
2023-04-18T06:07:05.132Z,1.96
2023-04-18T06:08:05.169Z,2.17
2023-04-18T06:09:05.237Z,2.31
2023-04-18T06:10:05.311Z,2.44
2023-04-18T06:11:05.364Z,2.77
2023-04-18T06:12:05.420Z,2.83
2023-04-18T06:13:05.447Z,2.46
2023-04-18T06:14:05.523Z,2.14
2023-04-18T06:15:05.501Z,1.88
2023-04-18T06:16:05.589Z,1.83
2023-04-18T06:17:05.564Z,1.83
2023-04-18T06:18:05.605Z,1.72
2023-04-18T06:19:05.605Z,1.79
2023-04-18T06:20:05.620Z,1.72
2023-04-18T06:21:05.636Z,1.85
2023-04-18T06:22:05.652Z,1.64
2023-04-18T06:23:05.688Z,1.52
2023-04-18T06:24:05.701Z,1.48
2023-04-18T06:25:05.732Z,1.48
2023-04-18T06:26:05.734Z,1.50
2023-04-18T06:27:05.772Z,1.57
2023-04-18T06:28:05.807Z,1.65
2023-04-18T06:29:05.807Z,1.75
2023-04-18T06:30:05.820Z,1.74
2023-04-18T06:31:05.889Z,1.89
2023-04-18T06:32:05.931Z,1.93
2023-04-18T06:33:05.926Z,2.10
2023-04-18T06:34:05.919Z,2.15
2023-04-18T06:35:05.932Z,2.06
2023-04-18T06:36:05.954Z,2.14
2023-04-18T06:37:05.979Z,2.57
2023-04-18T06:38:05.990Z,3.09
2023-04-18T06:39:06.006Z,3.83
2023-04-18T06:40:06.007Z,4.60
2023-04-18T06:41:06.047Z,5.47
2023-04-18T06:42:06.050Z,6.28
2023-04-18T06:43:06.062Z,7.63
2023-04-18T06:44:06.148Z,8.88
2023-04-18T06:45:06.094Z,6.62
2023-04-18T06:46:06.245Z,7.36
2023-04-18T06:47:06.136Z,6.72
2023-04-18T06:48:06.174Z,4.31
2023-04-18T06:49:06.164Z,3.15
2023-04-18T06:50:06.208Z,2.49
2023-04-18T06:51:06.179Z,2.67
2023-04-18T06:52:06.215Z,2.35
2023-04-18T06:53:06.217Z,2.09
2023-04-18T06:54:06.230Z,2.26
2023-04-18T06:55:06.224Z,2.05
2023-04-18T06:56:06.241Z,1.60
2023-04-18T06:57:06.252Z,1.30
2023-04-18T06:58:06.266Z,1.34
2023-04-18T06:59:06.312Z,1.34
2023-04-18T07:00:06.494Z,1.34
2023-04-18T07:01:06.333Z,1.43
2023-04-18T07:02:06.362Z,1.58
2023-04-18T07:03:08.017Z,1.48
2023-04-18T07:04:06.397Z,1.23
2023-04-18T07:05:06.364Z,1.10
2023-04-18T07:06:06.380Z,0.84
2023-04-18T07:07:06.398Z,0.99
2023-04-18T07:08:06.402Z,0.67
2023-04-18T07:09:06.430Z,0.57
2023-04-18T07:10:06.460Z,0.62
2023-04-18T07:11:06.464Z,0.46
2023-04-18T07:12:06.489Z,0.39
2023-04-18T07:13:06.484Z,0.39
2023-04-18T07:14:06.511Z,0.34
2023-04-18T07:15:06.543Z,0.34
2023-04-18T07:16:06.540Z,0.44
2023-04-18T07:17:06.684Z,0.46
2023-04-18T07:18:06.620Z,0.53
2023-04-18T07:19:06.568Z,0.49
2023-04-18T07:20:06.588Z,0.58
2023-04-18T07:21:06.600Z,0.36
2023-04-18T07:22:06.607Z,0.47
2023-04-18T07:23:06.675Z,0.67
2023-04-18T07:24:06.638Z,0.68
2023-04-18T07:25:06.646Z,0.50
2023-04-18T07:26:06.649Z,0.50
2023-04-18T07:27:06.670Z,0.54
2023-04-18T07:28:06.680Z,0.54
2023-04-18T07:29:06.687Z,0.46
2023-04-18T07:30:06.706Z,0.48
2023-04-18T07:31:06.776Z,0.49
2023-04-18T07:32:08.382Z,0.43
2023-04-18T07:33:06.764Z,0.61
2023-04-18T07:34:06.762Z,0.61
2023-04-18T07:35:06.822Z,0.57
2023-04-18T07:36:06.799Z,0.68
2023-04-18T07:37:06.807Z,1.02
2023-04-18T07:38:06.830Z,2.10
2023-04-18T07:39:06.850Z,3.42
2023-04-18T07:40:06.890Z,5.19
2023-04-18T07:41:06.907Z,8.73
2023-04-18T07:42:06.910Z,12.19
2023-04-18T07:43:06.925Z,15.10
2023-04-18T07:44:06.959Z,20.38
2023-04-18T07:45:06.942Z,25.88
2023-04-18T07:46:06.971Z,31.40
2023-04-18T07:47:06.987Z,37.18
2023-04-18T07:48:07.023Z,44.07
2023-04-18T07:49:06.994Z,50.63
2023-04-18T07:50:07.015Z,56.69
2023-04-18T07:51:07.032Z,64.50
2023-04-18T07:52:07.026Z,69.96
2023-04-18T07:53:07.030Z,72.69
2023-04-18T07:54:07.044Z,79.10
2023-04-18T07:55:07.070Z,81.69
2023-04-18T07:56:07.089Z,87.67
2023-04-18T07:57:07.112Z,89.89
2023-04-18T07:58:07.121Z,91.27
2023-04-18T07:59:07.186Z,95.46
2023-04-18T08:00:07.217Z,95.86
2023-04-18T08:01:07.286Z,99.34
2023-04-18T08:02:07.349Z,100.73
2023-04-18T08:03:07.564Z,102.39
2023-04-18T08:04:07.865Z,101.44
2023-04-18T08:05:07.651Z,100.94
2023-04-18T08:06:07.567Z,100.93
2023-04-18T08:07:07.660Z,99.86
2023-04-18T08:08:07.770Z,100.09
2023-04-18T08:09:07.838Z,95.85
2023-04-18T08:10:07.876Z,93.24
2023-04-18T08:11:07.939Z,91.06
2023-04-18T08:12:08.000Z,86.19
2023-04-18T08:13:08.099Z,84.98
2023-04-18T08:14:08.175Z,81.72
2023-04-18T08:15:08.217Z,75.16
2023-04-18T08:16:08.278Z,71.33
2023-04-18T08:17:08.333Z,67.67
2023-04-18T08:18:08.403Z,66.10
2023-04-18T08:19:08.443Z,63.84
2023-04-18T08:20:08.480Z,63.66
2023-04-18T08:21:08.519Z,61.16
2023-04-18T08:22:08.550Z,60.81
2023-04-18T08:23:11.170Z,56.27
2023-04-18T08:24:08.568Z,54.36
2023-04-18T08:25:08.597Z,55.42
2023-04-18T08:26:08.590Z,55.67
2023-04-18T08:27:08.591Z,56.37
2023-04-18T08:28:08.613Z,56.59
2023-04-18T08:29:08.620Z,58.13
2023-04-18T08:30:08.635Z,57.19
2023-04-18T08:31:08.696Z,55.67
2023-04-18T08:32:08.700Z,57.20
2023-04-18T08:33:08.691Z,62.34
2023-04-18T08:34:08.644Z,65.79
2023-04-18T08:35:08.662Z,65.68
2023-04-18T08:36:08.676Z,64.41
2023-04-18T08:37:08.674Z,58.95
2023-04-18T08:38:08.680Z,56.43
2023-04-18T08:39:08.686Z,54.97
2023-04-18T08:40:08.692Z,52.16
2023-04-18T08:41:08.705Z,49.17
2023-04-18T08:42:08.701Z,47.33
2023-04-18T08:43:08.704Z,44.64
2023-04-18T08:44:08.710Z,40.81
2023-04-18T08:45:08.722Z,37.56
2023-04-18T08:46:08.773Z,35.66
2023-04-18T08:47:08.733Z,33.65
2023-04-18T08:48:08.846Z,32.71
2023-04-18T08:49:10.719Z,25.96
2023-04-18T08:50:08.870Z,25.94
2023-04-18T08:51:08.875Z,26.55
2023-04-18T08:52:08.881Z,26.73
2023-04-18T08:53:08.865Z,27.57
2023-04-18T08:54:08.881Z,29.77
2023-04-18T08:55:08.887Z,34.25
2023-04-18T08:56:08.873Z,41.00
2023-04-18T08:57:08.870Z,41.15
2023-04-18T08:58:08.861Z,39.85
2023-04-18T08:59:08.873Z,42.68
2023-04-18T09:00:08.886Z,41.76
2023-04-18T09:01:08.943Z,45.69
2023-04-18T09:02:09.109Z,47.27
2023-04-18T09:03:09.116Z,49.92
2023-04-18T09:04:09.143Z,49.97
2023-04-18T09:05:09.142Z,53.97
2023-04-18T09:06:09.217Z,53.18
2023-04-18T09:07:09.269Z,55.73
2023-04-18T09:08:09.354Z,59.18
2023-04-18T09:09:09.405Z,59.48
2023-04-18T09:10:09.440Z,61.25
2023-04-18T09:11:09.489Z,62.98
2023-04-18T09:12:09.540Z,62.64
2023-04-18T09:13:09.596Z,64.15
2023-04-18T09:14:09.676Z,63.74
2023-04-18T09:15:09.705Z,61.17
2023-04-18T09:16:09.781Z,59.14
2023-04-18T09:17:09.775Z,57.98
2023-04-18T09:18:09.853Z,58.16
2023-04-18T09:19:09.854Z,56.88
2023-04-18T09:20:09.897Z,55.55
2023-04-18T09:21:09.905Z,54.70
2023-04-18T09:22:09.947Z,61.16
2023-04-18T09:23:09.981Z,64.13
2023-04-18T09:24:10.032Z,64.66
2023-04-18T09:25:10.036Z,64.91
2023-04-18T09:26:10.031Z,65.72
2023-04-18T09:27:10.047Z,67.34
2023-04-18T09:28:10.035Z,71.75
2023-04-18T09:29:10.037Z,79.70
2023-04-18T09:30:10.043Z,81.64
2023-04-18T09:31:10.103Z,84.68
2023-04-18T09:32:10.047Z,89.35
2023-04-18T09:33:10.089Z,93.51
2023-04-18T09:34:10.153Z,98.01
2023-04-18T09:35:10.231Z,99.26
2023-04-18T09:36:10.289Z,103.32
2023-04-18T09:37:10.413Z,108.12
2023-04-18T09:38:10.426Z,110.76
2023-04-18T09:39:10.469Z,115.70
2023-04-18T09:40:10.590Z,118.03
2023-04-18T09:41:10.598Z,115.13
2023-04-18T09:42:10.696Z,110.82
2023-04-18T09:43:10.746Z,111.07
2023-04-18T09:44:13.974Z,111.37
2023-04-18T09:45:10.680Z,111.44
2023-04-18T09:46:10.713Z,112.53
2023-04-18T09:47:10.684Z,115.87
2023-04-18T09:48:10.773Z,122.43
2023-04-18T09:49:11.267Z,130.65
2023-04-18T09:50:10.689Z,123.99
2023-04-18T09:51:10.703Z,124.29
2023-04-18T09:52:10.707Z,124.58
2023-04-18T09:53:10.694Z,125.61
2023-04-18T09:54:10.758Z,126.27
2023-04-18T09:55:10.695Z,126.80
2023-04-18T09:56:10.750Z,124.50
2023-04-18T09:57:10.718Z,125.17
2023-04-18T09:58:10.715Z,124.39
2023-04-18T09:59:10.718Z,124.55
2023-04-18T10:00:10.782Z,125.94
2023-04-18T10:01:10.735Z,126.21
2023-04-18T10:02:10.746Z,123.09
2023-04-18T10:03:10.849Z,122.55
2023-04-18T10:04:10.750Z,121.72
2023-04-18T10:05:10.896Z,119.03
2023-04-18T10:06:10.749Z,112.79
2023-04-18T10:07:10.720Z,100.23
2023-04-18T10:08:10.733Z,87.78
2023-04-18T10:10:29.584Z,0.50
2023-04-18T10:11:29.673Z,0.50
2023-04-18T10:12:29.551Z,0.50
2023-04-18T10:13:29.561Z,0.50
2023-04-18T10:14:29.562Z,0.50
2023-04-18T10:15:29.567Z,0.50
2023-04-18T10:16:29.610Z,0.50
2023-04-18T10:17:29.848Z,0.47
2023-04-18T10:18:29.586Z,0.51
2023-04-18T10:19:29.580Z,0.50
2023-04-18T10:20:29.525Z,0.50
2023-04-18T10:21:29.548Z,0.51
2023-04-18T10:22:29.503Z,0.50
2023-04-18T10:23:29.487Z,0.49
2023-04-18T10:24:29.472Z,0.51
2023-04-18T10:25:29.475Z,0.50
2023-04-18T10:26:29.527Z,0.50
2023-04-18T10:27:29.623Z,0.51
2023-04-18T10:28:29.471Z,0.50
2023-04-18T10:29:29.429Z,0.50
2023-04-18T10:30:29.424Z,0.50
2023-04-18T10:31:29.446Z,0.50
2023-04-18T10:32:29.455Z,0.51
2023-04-18T10:33:31.863Z,0.53
2023-04-18T10:34:29.390Z,0.53
2023-04-18T10:35:29.392Z,0.43
2023-04-18T10:36:29.397Z,0.45
2023-04-18T10:37:29.371Z,0.51
2023-04-18T10:38:29.441Z,0.74
2023-04-18T10:39:29.377Z,0.52
2023-04-18T10:40:29.342Z,0.55
2023-04-18T10:41:29.346Z,0.61
2023-04-18T10:42:29.330Z,0.71
2023-04-18T10:43:29.321Z,0.84
2023-04-18T10:44:29.322Z,0.95
2023-04-18T10:45:29.331Z,1.04
2023-04-18T10:46:32.467Z,1.13
2023-04-18T10:47:29.405Z,1.14
2023-04-18T10:48:29.296Z,0.76
2023-04-18T10:49:32.115Z,0.69
2023-04-18T10:50:29.276Z,0.57
2023-04-18T10:51:29.282Z,0.38
2023-04-18T10:52:29.268Z,0.44
2023-04-18T10:53:29.234Z,0.41
2023-04-18T10:54:29.244Z,0.38
2023-04-18T10:55:29.229Z,0.47
2023-04-18T10:56:29.286Z,0.50
2023-04-18T10:57:29.259Z,0.53
2023-04-18T10:58:29.223Z,0.53
2023-04-18T10:59:29.498Z,0.54
2023-04-18T11:00:29.202Z,0.55
2023-04-18T11:01:32.118Z,0.56
2023-04-18T11:02:29.255Z,0.54
2023-04-18T11:03:29.188Z,0.53
2023-04-18T11:04:29.261Z,0.55
2023-04-18T11:05:29.118Z,0.57
2023-04-18T11:06:29.129Z,0.56
2023-04-18T11:07:30.058Z,0.53
2023-04-18T11:08:29.086Z,0.53
2023-04-18T11:09:29.079Z,0.52
2023-04-18T11:10:29.073Z,0.55
2023-04-18T11:11:29.064Z,0.56
2023-04-18T11:12:29.064Z,0.52
2023-04-18T11:13:29.042Z,0.52
2023-04-18T11:14:29.057Z,0.54
2023-04-18T11:15:30.873Z,0.62
2023-04-18T11:16:29.080Z,0.50
2023-04-18T11:17:29.041Z,0.49
2023-04-18T11:18:28.976Z,0.52
2023-04-18T11:19:28.972Z,0.51
2023-04-18T11:20:28.948Z,0.50
2023-04-18T11:21:30.676Z,0.38
2023-04-18T11:22:29.021Z,0.34
2023-04-18T11:23:28.912Z,0.34
2023-04-18T11:24:28.896Z,0.46
2023-04-18T11:25:28.868Z,0.50
2023-04-18T11:26:28.866Z,0.50
2023-04-18T11:27:28.843Z,0.56
2023-04-18T11:28:28.821Z,0.69
2023-04-18T11:29:28.796Z,0.87
2023-04-18T11:30:28.823Z,1.14
2023-04-18T11:31:29.014Z,1.35
2023-04-18T11:32:28.843Z,1.61
2023-04-18T11:33:28.756Z,1.67
2023-04-18T11:34:28.743Z,1.68
2023-04-18T11:35:28.800Z,1.72
2023-04-18T11:36:28.772Z,1.69
2023-04-18T11:37:28.777Z,1.69
2023-04-18T11:38:28.762Z,1.79
2023-04-18T11:39:28.766Z,1.96
2023-04-18T11:40:28.745Z,2.22
2023-04-18T11:41:28.761Z,1.69
2023-04-18T11:42:28.629Z,1.70
2023-04-18T11:43:28.624Z,1.53
2023-04-18T11:44:28.598Z,1.53
2023-04-18T11:45:28.592Z,1.49
2023-04-18T11:46:28.618Z,1.62
2023-04-18T11:47:28.589Z,1.62
2023-04-18T11:48:28.547Z,1.19
2023-04-18T11:49:28.538Z,1.04
2023-04-18T11:50:28.516Z,1.14
2023-04-18T11:51:28.515Z,1.18
2023-04-18T11:52:28.509Z,1.21
2023-04-18T11:53:28.490Z,1.16
2023-04-18T11:54:28.475Z,1.18
2023-04-18T11:55:28.469Z,1.44
2023-04-18T11:56:28.445Z,1.59
2023-04-18T11:57:28.428Z,1.72
2023-04-18T11:58:28.406Z,1.44
2023-04-18T11:59:28.389Z,1.42
2023-04-18T12:00:28.391Z,1.48
2023-04-18T12:01:28.355Z,1.45
2023-04-18T12:02:28.501Z,1.42
2023-04-18T12:03:28.484Z,1.47
2023-04-18T12:04:28.423Z,1.49
2023-04-18T12:05:28.396Z,1.37
2023-04-18T12:06:28.373Z,1.41
2023-04-18T12:07:28.301Z,1.31
2023-04-18T12:08:28.271Z,1.21
2023-04-18T12:09:28.259Z,1.27
2023-04-18T12:10:28.271Z,1.26
2023-04-18T12:11:28.279Z,1.22
2023-04-18T12:12:28.347Z,1.25
2023-04-18T12:13:28.384Z,1.25
2023-04-18T12:14:28.442Z,1.33
2023-04-18T12:15:28.519Z,1.35
2023-04-18T12:16:28.632Z,1.31
2023-04-18T12:17:28.617Z,1.37
2023-04-18T12:18:28.663Z,1.47
2023-04-18T12:19:28.645Z,1.44
2023-04-18T12:20:28.631Z,1.46
2023-04-18T12:21:28.624Z,1.50
2023-04-18T12:22:28.610Z,1.54
2023-04-18T12:23:28.579Z,1.58
2023-04-18T12:24:28.608Z,1.68
2023-04-18T12:25:28.570Z,1.85
2023-04-18T12:26:28.567Z,1.86
2023-04-18T12:27:28.538Z,1.87
2023-04-18T12:28:28.545Z,1.93
2023-04-18T12:29:28.512Z,2.08
2023-04-18T12:30:28.514Z,2.33
2023-04-18T12:31:28.547Z,2.46
2023-04-18T12:32:28.555Z,2.51
2023-04-18T12:33:28.481Z,2.68
2023-04-18T12:34:28.468Z,2.66
2023-04-18T12:35:28.483Z,2.84
2023-04-18T12:36:28.503Z,2.90
2023-04-18T12:37:28.554Z,3.15
2023-04-18T12:38:28.599Z,3.23
2023-04-18T12:39:28.659Z,3.40
2023-04-18T12:40:28.684Z,3.61
2023-04-18T12:41:28.732Z,3.83
2023-04-18T12:42:28.770Z,4.06
2023-04-18T12:43:28.829Z,4.15
2023-04-18T12:44:28.882Z,4.47
2023-04-18T12:45:28.939Z,4.72
2023-04-18T12:46:29.065Z,5.08
2023-04-18T12:47:29.021Z,5.09
2023-04-18T12:48:28.963Z,5.19
2023-04-18T12:49:28.957Z,5.44
2023-04-18T12:50:28.938Z,5.89
2023-04-18T12:51:29.017Z,6.68
2023-04-18T12:52:28.916Z,7.27
2023-04-18T12:53:28.907Z,7.65
2023-04-18T12:54:28.889Z,7.94
2023-04-18T12:55:28.895Z,8.49
2023-04-18T12:56:28.895Z,8.98
2023-04-18T12:57:31.612Z,9.45
2023-04-18T12:58:28.926Z,9.86
2023-04-18T12:59:28.896Z,10.28
2023-04-18T13:00:28.996Z,10.38
2023-04-18T13:01:29.004Z,10.93
2023-04-18T13:02:29.074Z,11.40
2023-04-18T13:03:29.034Z,11.86
2023-04-18T13:04:28.882Z,12.57
2023-04-18T13:05:32.486Z,12.67
2023-04-18T13:06:28.816Z,12.72
2023-04-18T13:07:28.804Z,12.85